createdAt,value
2023-05-15T00:08:03.839Z,14.57
2023-05-15T00:16:26.874Z,14.56
2023-05-15T00:24:50.002Z,14.55
2023-05-15T00:33:13.029Z,14.55
2023-05-15T00:41:37.122Z,14.48
2023-05-15T00:50:01.944Z,14.41
2023-05-15T00:58:27.512Z,14.31
2023-05-15T01:06:53.530Z,14.25
2023-05-15T01:15:16.494Z,14.23
2023-05-15T01:24:00.192Z,14.20
2023-05-15T01:32:47.400Z,14.15
2023-05-15T01:41:31.885Z,14.12
2023-05-15T01:49:57.896Z,14.09
2023-05-15T01:58:21.609Z,14.08
2023-05-15T02:06:45.638Z,14.07
2023-05-15T02:15:10.512Z,14.09
2023-05-15T02:23:33.925Z,14.14
2023-05-15T02:32:05.032Z,14.15
2023-05-15T02:40:29.354Z,14.15
2023-05-15T02:48:53.658Z,14.14
2023-05-15T02:57:16.702Z,14.12
2023-05-15T03:05:39.694Z,14.08
2023-05-15T03:14:02.705Z,14.04
2023-05-15T03:22:25.984Z,14.02
2023-05-15T03:30:49.015Z,14.03
2023-05-15T03:39:11.904Z,14.03
2023-05-15T03:47:35.084Z,14.02
2023-05-15T03:55:58.074Z,14.07
2023-05-15T04:04:22.124Z,14.18
2023-05-15T04:12:45.186Z,14.28
2023-05-15T04:21:09.399Z,14.47
2023-05-15T04:29:32.396Z,14.62
2023-05-15T04:37:55.272Z,14.67
2023-05-15T04:46:18.223Z,14.67
2023-05-15T04:54:41.186Z,14.67
2023-05-15T05:03:04.953Z,14.69
2023-05-15T05:11:29.533Z,14.68
2023-05-15T05:19:52.405Z,14.75
2023-05-15T05:28:15.890Z,14.82
2023-05-15T05:36:38.785Z,14.89
2023-05-15T05:45:01.854Z,14.89
2023-05-15T05:53:24.838Z,14.84
2023-05-15T06:01:49.797Z,14.76
2023-05-15T06:10:14.004Z,14.76
2023-05-15T06:18:37.350Z,14.75
2023-05-15T06:27:01.107Z,14.69
2023-05-15T06:35:24.274Z,14.53
2023-05-15T06:43:47.335Z,14.30
2023-05-15T06:52:11.083Z,14.08
2023-05-15T07:00:34.111Z,14.22
2023-05-15T07:08:57.106Z,14.45
2023-05-15T07:17:20.157Z,14.64
2023-05-15T07:25:43.485Z,14.77
2023-05-15T07:34:07.163Z,14.83
2023-05-15T07:42:30.345Z,14.85
2023-05-15T07:50:54.025Z,15.04
2023-05-15T07:59:17.019Z,15.28
2023-05-15T08:07:41.270Z,15.11
2023-05-15T08:16:04.596Z,15.02
2023-05-15T08:24:27.649Z,14.74
2023-05-15T08:32:50.581Z,14.20
2023-05-15T08:41:41.006Z,13.72
2023-05-15T08:50:15.898Z,13.64
2023-05-15T08:58:39.146Z,13.66
2023-05-15T09:07:03.797Z,13.76
2023-05-15T09:15:28.224Z,13.86
2023-05-15T09:23:52.187Z,14.02
2023-05-15T09:32:18.695Z,14.12
2023-05-15T09:40:42.097Z,14.63
2023-05-15T09:49:05.060Z,15.14
2023-05-15T09:57:28.003Z,15.03
2023-05-15T10:05:59.240Z,14.59
2023-05-15T10:14:23.362Z,14.07
2023-05-15T10:22:48.654Z,13.61
2023-05-15T10:31:13.106Z,13.57
2023-05-15T10:39:41.264Z,13.40
2023-05-15T10:48:07.837Z,13.36
2023-05-15T10:56:32.829Z,13.40
2023-05-15T11:05:03.804Z,13.37
2023-05-15T11:13:27.181Z,13.33
2023-05-15T11:22:32.225Z,13.27
2023-05-15T11:31:01.079Z,13.24
2023-05-15T11:39:25.429Z,13.21
2023-05-15T11:47:48.413Z,13.17
2023-05-15T11:56:29.314Z,13.24
2023-05-15T12:04:52.390Z,13.20
2023-05-15T12:13:18.640Z,13.18
2023-05-15T12:21:46.954Z,13.14
2023-05-15T12:30:11.540Z,13.13
2023-05-15T12:38:38.163Z,13.15
2023-05-15T12:47:01.578Z,13.13
2023-05-15T12:55:36.104Z,13.11
2023-05-15T13:03:59.213Z,13.07
2023-05-15T13:12:23.895Z,13.10
2023-05-15T13:20:48.989Z,13.15
2023-05-15T13:29:12.608Z,13.43
2023-05-15T13:37:37.244Z,13.66
2023-05-15T13:46:00.672Z,13.68
2023-05-15T13:54:24.939Z,13.74
2023-05-15T14:02:48.109Z,13.64
2023-05-15T14:11:11.089Z,13.61
2023-05-15T14:19:34.618Z,13.59
2023-05-15T14:27:57.468Z,14.05
2023-05-15T14:36:20.432Z,14.60
2023-05-15T14:44:43.259Z,14.88
2023-05-15T14:53:06.118Z,15.43
2023-05-15T15:01:29.225Z,15.23
2023-05-15T15:09:52.121Z,15.33
2023-05-15T15:18:15.507Z,15.44
2023-05-15T15:26:38.503Z,15.32
2023-05-15T15:35:01.448Z,15.20
2023-05-15T15:43:24.369Z,14.89
2023-05-15T15:51:47.243Z,14.70
2023-05-15T16:00:10.613Z,14.53
2023-05-15T16:08:33.485Z,14.76
2023-05-15T16:16:56.695Z,15.36
2023-05-15T16:25:19.727Z,16.40
2023-05-15T16:33:43.665Z,16.71
2023-05-15T16:42:09.472Z,16.11
2023-05-15T16:50:35.375Z,15.53
2023-05-15T16:58:58.180Z,15.23
2023-05-15T17:07:21.015Z,15.18
2023-05-15T17:15:45.154Z,15.23
2023-05-15T17:24:08.887Z,15.22
2023-05-15T17:32:31.774Z,15.02
2023-05-15T17:40:55.608Z,14.70
2023-05-15T17:49:18.659Z,14.46
2023-05-15T17:57:41.551Z,14.28
2023-05-15T18:06:04.619Z,14.06
2023-05-15T18:14:27.455Z,14.00
2023-05-15T18:22:50.836Z,13.96
2023-05-15T18:31:13.957Z,13.87
2023-05-15T18:39:37.897Z,13.82
2023-05-15T18:48:01.362Z,13.81
2023-05-15T18:56:25.180Z,13.74
2023-05-15T19:04:48.160Z,13.74
2023-05-15T19:13:10.993Z,13.73
2023-05-15T19:21:33.885Z,13.72
2023-05-15T19:29:57.529Z,13.72
2023-05-15T19:38:20.653Z,13.70
2023-05-15T19:46:45.128Z,13.70
2023-05-15T19:55:08.632Z,13.70
2023-05-15T20:03:34.579Z,13.63
2023-05-15T20:11:57.815Z,13.62
2023-05-15T20:20:21.536Z,13.63
2023-05-15T20:28:45.400Z,13.57
2023-05-15T20:37:09.481Z,13.58
2023-05-15T20:45:32.492Z,13.59
2023-05-15T20:53:56.145Z,13.52
2023-05-15T21:02:19.082Z,13.49
2023-05-15T21:10:41.981Z,13.45
2023-05-15T21:19:05.056Z,13.30
2023-05-15T21:27:27.983Z,13.15
2023-05-15T21:35:51.610Z,12.97
2023-05-15T21:44:14.737Z,12.74
2023-05-15T21:52:37.729Z,12.56
2023-05-15T22:01:00.618Z,12.43
2023-05-15T22:09:23.668Z,12.27
2023-05-15T22:17:46.650Z,12.19
2023-05-15T22:26:09.687Z,12.16
2023-05-15T22:34:32.753Z,12.06
2023-05-15T22:43:13.085Z,12.01
2023-05-15T22:51:37.041Z,11.95
2023-05-15T22:59:59.957Z,11.85
2023-05-15T23:08:40.662Z,11.77
2023-05-15T23:17:04.325Z,11.71
2023-05-15T23:25:27.180Z,11.59
2023-05-15T23:33:50.696Z,11.50
2023-05-15T23:42:13.549Z,11.48
2023-05-15T23:50:36.707Z,11.39
2023-05-15T23:58:59.736Z,11.43
